Time;durP1;ratioP1;P1;durP2;ratioP2;P2;SDS_P1;SDS_P2;PMS_P1;PMS_P2;Temp;Humidity;BMP_temperature;BMP_pressure;BME280_temperature;BME280_humidity;BME280_pressure;Samples;Min_cycle;Max_cycle;Signal;HPM_P1;HPM_P2
2021/12/22 00:02:10;;;;;;;;;;;;;;;0.72;64.32;102543.66;5055083;28;19921;-59
2021/12/22 00:04:43;;;;;;;;;;;;;;;0.69;64.71;102549.41;5054984;28;19955;-60
2021/12/22 00:07:08;;;;;;;;;;;;;;;0.67;64.55;102545.13;5053433;28;19921;-59
2021/12/22 00:09:34;;;;;;;;;;;;;;;0.65;64.60;102539.78;5055091;28;19920;-60
2021/12/22 00:11:59;;;;;;;;;;;;;;;0.64;64.56;102540.81;5055216;28;19943;-59
2021/12/22 00:14:24;;;;;;;;;;;;;;;0.63;64.42;102539.09;5054198;28;19963;-59
2021/12/22 00:16:49;;;;;;;;;;;;;;;0.61;64.02;102541.09;5054736;28;19921;-59
2021/12/22 00:19:15;;;;;;;;;;;;;;;0.62;64.54;102539.22;5055530;28;19917;-59
2021/12/22 00:21:40;;;;;;;;;;;;;;;0.63;64.10;102536.34;5054618;28;19920;-60
2021/12/22 00:24:05;;;;;;;;;;;;;;;0.64;64.16;102537.22;5048273;28;19928;-60
2021/12/22 00:26:30;;;;;;;;;;;;;;;0.66;64.51;102546.97;5053516;28;19924;-60
2021/12/22 00:28:56;;;;;;;;;;;;;;;0.65;64.65;102542.53;5055318;28;20070;-59
2021/12/22 00:31:22;;;;;;;;;;;;;;;0.62;64.04;102534.59;5054143;28;19921;-59
2021/12/22 00:33:48;;;;;;;;;;;;;;;0.60;64.46;102543.97;5054728;28;19917;-59
2021/12/22 00:36:14;;;;;;;;;;;;;;;0.55;64.04;102536.22;5054924;28;19924;-60
2021/12/22 00:38:39;;;;;;;;;;;;;;;0.54;64.02;102541.81;5045518;28;19921;-60
2021/12/22 00:41:05;;;;;;;;;;;;;;;0.55;64.49;102538.97;5046849;28;19975;-59
2021/12/22 00:43:30;;;;;;;;;;;;;;;0.59;64.65;102548.59;5054107;28;19917;-60
2021/12/22 00:45:56;;;;;;;;;;;;;;;0.63;64.08;102539.09;5054941;28;19921;-59
2021/12/22 00:48:21;;;;;;;;;;;;;;;0.63;64.82;102539.09;5053384;28;19921;-59
2021/12/22 00:50:46;;;;;;;;;;;;;;;0.64;64.53;102537.22;5054085;28;20276;-59
2021/12/22 00:53:12;;;;;;;;;;;;;;;0.63;64.25;102540.94;5051692;28;20754;-60
2021/12/22 00:55:37;;;;;;;;;;;;;;;0.59;64.07;102540.38;5050659;28;19921;-59
2021/12/22 00:58:04;;;;;;;;;;;;;;;0.58;64.05;102535.91;5050661;28;20389;-59
2021/12/22 01:00:29;;;;;;;;;;;;;;;0.60;63.92;102528.44;5054489;28;19921;-60
2021/12/22 01:02:54;;;;;;;;;;;;;;;0.59;64.68;102543.13;5053432;28;19928;-59
2021/12/22 01:05:20;;;;;;;;;;;;;;;0.62;64.09;102542.81;5054518;28;19920;-59
2021/12/22 01:07:46;;;;;;;;;;;;;;;0.60;64.02;102542.09;5053836;28;19927;-59
2021/12/22 01:10:12;;;;;;;;;;;;;;;0.59;64.55;102532.19;5053767;28;19928;-59
2021/12/22 01:12:38;;;;;;;;;;;;;;;0.58;64.52;102537.78;5054852;28;19921;-59
2021/12/22 01:15:04;;;;;;;;;;;;;;;0.52;64.31;102539.25;5047476;28;19948;-59
2021/12/22 01:17:37;;;;;;;;;;;;;;;0.49;64.00;102539.53;5051911;28;19921;-59
2021/12/22 01:20:09;;;;;;;;;;;;;;;0.46;64.47;102542.53;5054364;28;19921;-60
2021/12/22 01:22:48;;;;;;;;;;;;;;;0.46;64.03;102537.94;5053036;28;19920;-59
2021/12/22 01:25:15;;;;;;;;;;;;;;;0.42;64.06;102530.19;5053029;28;20018;-59
2021/12/22 01:27:42;;;;;;;;;;;;;;;0.41;64.35;102531.19;5053928;28;20017;-59
2021/12/22 01:30:10;;;;;;;;;;;;;;;0.38;64.54;102532.34;5052444;28;19921;-59
2021/12/22 01:32:36;;;;;;;;;;;;;;;0.37;64.46;102524.31;5041285;28;19930;-60
2021/12/22 01:35:01;;;;;;;;;;;;;;;0.37;63.96;102527.03;5050610;28;19920;-60
2021/12/22 01:37:26;;;;;;;;;;;;;;;0.38;64.49;102520.56;5053227;28;19921;-59
2021/12/22 01:39:52;;;;;;;;;;;;;;;0.40;64.34;102526.75;5053007;28;19920;-59
2021/12/22 01:42:17;;;;;;;;;;;;;;;0.39;64.44;102531.34;5053577;28;19921;-59
2021/12/22 01:45:24;;;;;;;;;;;;;;;0.39;64.29;102525.91;5052595;28;20320;-59
2021/12/22 01:50:34;;;;;;;;;;;;;;;0.37;64.09;102521.56;5046631;28;20386;-60
2021/12/22 01:53:00;;;;;;;;;;;;;;;0.37;64.20;102522.44;5052582;28;19927;-59
2021/12/22 01:55:34;;;;;;;;;;;;;;;0.37;64.50;102516.09;5051405;28;19932;-59
2021/12/22 01:58:00;;;;;;;;;;;;;;;0.36;64.23;102517.13;5052939;28;20311;-59
2021/12/22 02:00:25;;;;;;;;;;;;;;;0.38;64.25;102515.09;5042360;28;19928;-60
2021/12/22 02:02:51;;;;;;;;;;;;;;;0.38;64.27;102515.09;5032588;28;19921;-59
2021/12/22 02:05:16;;;;;;;;;;;;;;;0.38;64.19;102524.16;5033221;28;19913;-59
2021/12/22 02:07:41;;;;;;;;;;;;;;;0.37;64.04;102527.91;5028891;28;20679;-59
2021/12/22 02:12:53;;;;;;;;;;;;;;;0.37;64.29;102532.50;5034205;28;19925;-59
2021/12/22 02:15:18;;;;;;;;;;;;;;;0.37;64.01;102541.56;5049211;28;19963;-59
2021/12/22 02:17:44;;;;;;;;;;;;;;;0.35;64.21;102537.22;5028033;28;19961;-59
2021/12/22 02:20:09;;;;;;;;;;;;;;;0.33;64.55;102540.13;5045326;28;19936;-60
2021/12/22 02:22:35;;;;;;;;;;;;;;;0.31;64.01;102544.00;5034937;28;20438;-60
2021/12/22 02:25:03;;;;;;;;;;;;;;;0.27;64.47;102535.22;5023212;28;19921;-59
2021/12/22 02:27:36;;;;;;;;;;;;;;;0.23;64.18;102537.38;5033227;28;19921;-59
2021/12/22 02:30:05;;;;;;;;;;;;;;;0.24;64.28;102539.13;5047228;28;19917;-59
2021/12/22 02:35:01;;;;;;;;;;;;;;;0.25;64.54;102539.97;5033140;28;19917;-59
2021/12/22 02:37:26;;;;;;;;;;;;;;;0.26;64.18;102538.09;5049491;28;19921;-60
2021/12/22 02:39:58;;;;;;;;;;;;;;;0.23;63.97;102528.31;5051552;28;20004;-59
2021/12/22 02:42:25;;;;;;;;;;;;;;;0.22;64.03;102530.19;5030667;28;19921;-60
2021/12/22 02:44:51;;;;;;;;;;;;;;;0.22;64.25;102535.66;5023882;28;19960;-59
2021/12/22 02:47:20;;;;;;;;;;;;;;;0.20;64.01;102532.22;5041040;28;20059;-59
2021/12/22 02:49:45;;;;;;;;;;;;;;;0.18;64.03;102534.22;5048197;28;19921;-59
2021/12/22 02:52:11;;;;;;;;;;;;;;;0.16;64.10;102530.78;5035368;28;20388;-59
2021/12/22 02:54:43;;;;;;;;;;;;;;;0.15;64.51;102528.19;5032351;28;19925;-59
2021/12/22 02:57:22;;;;;;;;;;;;;;;0.16;64.57;102519.88;5014777;28;20368;-59
2021/12/22 03:00:10;;;;;;;;;;;;;;;0.20;64.12;102513.13;5034624;28;19927;-59
2021/12/22 03:02:41;;;;;;;;;;;;;;;0.23;64.35;102511.94;5050976;28;20336;-59
2021/12/22 03:05:07;;;;;;;;;;;;;;;0.23;64.38;102515.53;5053277;28;19967;-59
2021/12/22 03:07:32;;;;;;;;;;;;;;;0.24;64.48;102521.88;5056390;28;19960;-59
2021/12/22 03:10:00;;;;;;;;;;;;;;;0.27;64.46;102526.16;5056030;28;19927;-59
2021/12/22 03:12:27;;;;;;;;;;;;;;;0.24;64.13;102525.47;5056743;28;19999;-59
2021/12/22 03:14:53;;;;;;;;;;;;;;;0.22;64.23;102529.34;5048795;28;19928;-59
2021/12/22 03:17:18;;;;;;;;;;;;;;;0.20;64.34;102536.81;5054940;28;19921;-59
2021/12/22 03:19:43;;;;;;;;;;;;;;;0.15;64.31;102539.09;5056957;28;20300;-59
2021/12/22 03:22:11;;;;;;;;;;;;;;;0.10;64.00;102542.28;5045278;28;19921;-59
2021/12/22 03:24:37;;;;;;;;;;;;;;;0.08;64.06;102541.56;5038603;28;19967;-59
2021/12/22 03:27:03;;;;;;;;;;;;;;;0.05;64.23;102544.56;5051739;28;19921;-59
2021/12/22 03:29:29;;;;;;;;;;;;;;;0.02;64.10;102549.47;5039630;28;19929;-59
2021/12/22 03:31:54;;;;;;;;;;;;;;;-0.02;64.54;102551.59;5043015;28;19927;-59
2021/12/22 03:34:20;;;;;;;;;;;;;;;-0.02;64.06;102552.47;5049747;28;19921;-60
2021/12/22 03:36:45;;;;;;;;;;;;;;;-0.02;64.14;102552.47;5053198;28;19920;-59
2021/12/22 03:39:11;;;;;;;;;;;;;;;-0.02;64.01;102549.72;5056642;28;19955;-59
2021/12/22 03:41:37;;;;;;;;;;;;;;;-0.02;64.55;102548.88;5055857;28;20356;-59
2021/12/22 03:44:03;;;;;;;;;;;;;;;-0.07;64.22;102546.56;5046358;28;20020;-59
2021/12/22 03:46:28;;;;;;;;;;;;;;;-0.08;64.11;102549.44;5039890;28;19921;-59
2021/12/22 03:48:54;;;;;;;;;;;;;;;-0.10;64.52;102538.66;5041053;28;19968;-59
2021/12/22 03:51:19;;;;;;;;;;;;;;;-0.08;64.01;102543.97;5053472;28;19927;-59
2021/12/22 03:53:44;;;;;;;;;;;;;;;-0.10;63.86;102522.28;5056123;28;20364;-60
2021/12/22 03:56:09;;;;;;;;;;;;;;;-0.12;63.95;102532.50;5054947;28;19920;-59
2021/12/22 03:58:35;;;;;;;;;;;;;;;-0.13;64.24;102532.63;5054885;28;19921;-60
2021/12/22 04:01:00;;;;;;;;;;;;;;;-0.14;64.19;102539.94;5051587;28;19956;-59
2021/12/22 04:03:30;;;;;;;;;;;;;;;-0.15;64.19;102543.69;5044310;28;20012;-60
2021/12/22 04:05:55;;;;;;;;;;;;;;;-0.14;64.43;102539.94;5035067;28;19928;-59
2021/12/22 04:08:20;;;;;;;;;;;;;;;-0.12;64.23;102532.50;5034385;28;20281;-59
2021/12/22 04:10:46;;;;;;;;;;;;;;;-0.08;64.38;102538.50;5038522;28;19928;-59
2021/12/22 04:13:12;;;;;;;;;;;;;;;-0.07;64.13;102537.53;5050331;28;19928;-59
2021/12/22 04:15:37;;;;;;;;;;;;;;;-0.07;64.28;102532.06;5043098;28;19927;-59
2021/12/22 04:18:02;;;;;;;;;;;;;;;-0.08;64.22;102527.59;5044206;28;19960;-59
2021/12/22 04:20:29;;;;;;;;;;;;;;;-0.08;64.40;102530.31;5035509;28;19921;-60
2021/12/22 04:22:54;;;;;;;;;;;;;;;-0.08;64.13;102531.22;5049140;28;20229;-60
2021/12/22 04:25:20;;;;;;;;;;;;;;;-0.11;64.25;102527.91;5032634;28;19931;-59
2021/12/22 04:27:46;;;;;;;;;;;;;;;-0.12;64.32;102520.69;5036235;28;19940;-59
2021/12/22 04:30:11;;;;;;;;;;;;;;;-0.11;64.50;102514.25;5034984;28;19921;-59
2021/12/22 04:32:36;;;;;;;;;;;;;;;-0.10;64.14;102519.56;5046582;28;19967;-59
2021/12/22 04:35:01;;;;;;;;;;;;;;;-0.07;64.09;102511.09;5053512;28;20261;-59
2021/12/22 04:37:27;;;;;;;;;;;;;;;-0.07;64.18;102511.09;5052786;28;19943;-59
2021/12/22 04:39:52;;;;;;;;;;;;;;;-0.05;64.26;102516.41;5050103;28;19964;-59
2021/12/22 04:42:17;;;;;;;;;;;;;;;-0.06;64.22;102509.22;5037551;28;19936;-59
2021/12/22 04:44:42;;;;;;;;;;;;;;;-0.06;63.96;102509.22;5050585;28;19929;-59
2021/12/22 04:47:07;;;;;;;;;;;;;;;-0.04;64.45;102504.47;5034585;28;19921;-59
2021/12/22 04:49:33;;;;;;;;;;;;;;;-0.04;64.31;102507.19;5032223;28;19925;-59
2021/12/22 04:51:59;;;;;;;;;;;;;;;-0.06;64.70;102510.06;5036545;28;20020;-59
2021/12/22 04:56:53;;;;;;;;;;;;;;;-0.10;64.40;102513.25;5031529;28;20273;-59
2021/12/22 04:59:19;;;;;;;;;;;;;;;-0.12;64.29;102515.22;5038326;28;19921;-60
2021/12/22 05:01:44;;;;;;;;;;;;;;;-0.15;64.39;102507.34;5047668;28;19936;-59
2021/12/22 05:04:12;;;;;;;;;;;;;;;-0.15;64.60;102510.94;5053768;28;19917;-59
2021/12/22 05:06:37;;;;;;;;;;;;;;;-0.16;64.22;102498.28;5054327;28;19920;-59
2021/12/22 05:09:04;;;;;;;;;;;;;;;-0.15;64.29;102499.16;5052773;28;19982;-59
2021/12/22 05:11:29;;;;;;;;;;;;;;;-0.16;64.35;102491.97;5054466;28;19972;-59
2021/12/22 05:13:54;;;;;;;;;;;;;;;-0.15;64.13;102489.13;5054007;28;20339;-59
2021/12/22 05:16:19;;;;;;;;;;;;;;;-0.14;64.54;102489.97;5053261;28;20334;-59
2021/12/22 05:18:56;;;;;;;;;;;;;;;-0.14;64.47;102496.28;5045737;28;19944;-59
2021/12/22 05:21:22;;;;;;;;;;;;;;;-0.15;64.28;102499.16;5054606;28;19975;-59
2021/12/22 05:23:51;;;;;;;;;;;;;;;-0.14;64.43;102488.09;5052373;28;20388;-59
2021/12/22 05:26:16;;;;;;;;;;;;;;;-0.14;64.51;102490.81;5053364;28;19921;-59
2021/12/22 05:28:44;;;;;;;;;;;;;;;-0.14;64.30;102495.44;5054601;28;19917;-59
2021/12/22 05:31:09;;;;;;;;;;;;;;;-0.14;64.07;102495.44;5051781;28;19920;-59
2021/12/22 05:33:35;;;;;;;;;;;;;;;-0.14;64.28;102495.44;5054592;28;19928;-59
2021/12/22 05:36:00;;;;;;;;;;;;;;;-0.13;64.43;102502.59;5049193;28;19956;-60
2021/12/22 05:38:25;;;;;;;;;;;;;;;-0.12;64.30;102493.41;5050687;28;19928;-59
2021/12/22 05:40:50;;;;;;;;;;;;;;;-0.13;64.46;102487.09;5053932;28;20326;-59
2021/12/22 05:43:16;;;;;;;;;;;;;;;-0.13;64.33;102489.81;5052270;28;19928;-59
2021/12/22 05:45:41;;;;;;;;;;;;;;;-0.13;64.38;102487.09;5054487;28;19917;-59
2021/12/22 05:48:09;;;;;;;;;;;;;;;-0.12;64.32;102474.28;5053690;28;19928;-59
2021/12/22 05:50:34;;;;;;;;;;;;;;;-0.13;64.59;102475.31;5052902;28;19921;-59
2021/12/22 05:52:59;;;;;;;;;;;;;;;-0.13;64.52;102478.03;5050992;28;19928;-59
2021/12/22 05:55:24;;;;;;;;;;;;;;;-0.11;64.46;102476.91;5052554;28;19916;-59
2021/12/22 05:57:50;;;;;;;;;;;;;;;-0.12;64.68;102472.47;5053115;28;19986;-59
2021/12/22 06:00:15;;;;;;;;;;;;;;;-0.14;64.51;102474.44;5052908;28;19928;-59
2021/12/22 06:02:40;;;;;;;;;;;;;;;-0.14;64.28;102473.59;5053660;28;19929;-59
2021/12/22 06:05:06;;;;;;;;;;;;;;;-0.16;64.62;102464.66;5049694;28;19921;-59
2021/12/22 06:07:31;;;;;;;;;;;;;;;-0.17;64.44;102468.41;5053109;28;19920;-59
2021/12/22 06:09:56;;;;;;;;;;;;;;;-0.15;64.53;102472.75;5053727;28;19933;-59
2021/12/22 06:12:21;;;;;;;;;;;;;;;-0.16;64.36;102481.91;5052362;28;19921;-60
2021/12/22 06:14:47;;;;;;;;;;;;;;;-0.16;64.40;102481.06;5053295;28;19921;-59
2021/12/22 06:17:13;;;;;;;;;;;;;;;-0.17;64.44;102488.38;5053509;28;20011;-59
2021/12/22 06:19:38;;;;;;;;;;;;;;;-0.18;64.21;102483.06;5047151;28;19921;-60
2021/12/22 06:22:03;;;;;;;;;;;;;;;-0.19;64.62;102478.63;5049016;28;19921;-60
2021/12/22 06:24:29;;;;;;;;;;;;;;;-0.19;64.85;102487.69;5050804;28;20272;-60
2021/12/22 06:26:55;;;;;;;;;;;;;;;-0.21;64.35;102486.09;5051061;28;19920;-60
2021/12/22 06:29:20;;;;;;;;;;;;;;;-0.24;64.54;102479.03;5053724;28;19923;-60
2021/12/22 06:31:45;;;;;;;;;;;;;;;-0.25;64.68;102477.31;5052542;28;19963;-60
2021/12/22 06:34:10;;;;;;;;;;;;;;;-0.27;64.78;102480.19;5051689;28;19928;-61
2021/12/22 06:36:36;;;;;;;;;;;;;;;-0.30;64.75;102472.28;5052706;28;19954;-60
2021/12/22 06:39:02;;;;;;;;;;;;;;;-0.31;64.66;102473.31;5052095;28;19925;-60
2021/12/22 06:41:30;;;;;;;;;;;;;;;-0.33;64.55;102482.63;5049680;28;19925;-60
2021/12/22 06:43:55;;;;;;;;;;;;;;;-0.34;64.50;102483.63;5050820;28;19928;-60
2021/12/22 06:46:26;;;;;;;;;;;;;;;-0.35;64.35;102482.78;5051979;28;19921;-60
2021/12/22 06:48:51;;;;;;;;;;;;;;;-0.37;64.16;102487.50;5044641;28;19921;-60
2021/12/22 06:51:16;;;;;;;;;;;;;;;-0.38;64.43;102490.38;5052861;28;19928;-59
2021/12/22 06:53:42;;;;;;;;;;;;;;;-0.40;64.60;102489.66;5052019;28;19952;-59
2021/12/22 06:56:07;;;;;;;;;;;;;;;-0.41;64.48;102493.38;5046091;28;19955;-59
2021/12/22 06:58:32;;;;;;;;;;;;;;;-0.44;64.54;102488.19;5034078;28;19920;-60
2021/12/22 07:00:59;;;;;;;;;;;;;;;-0.47;64.28;102492.09;5046481;28;19921;-59
2021/12/22 07:03:24;;;;;;;;;;;;;;;-0.48;64.42;102500.41;5039773;28;19928;-59
2021/12/22 07:05:49;;;;;;;;;;;;;;;-0.49;64.57;102496.81;5051865;28;19921;-59
2021/12/22 07:08:14;;;;;;;;;;;;;;;-0.51;64.65;102493.38;5052111;28;19967;-59
2021/12/22 07:10:40;;;;;;;;;;;;;;;-0.53;64.59;102496.22;5052867;28;20015;-59
2021/12/22 07:13:06;;;;;;;;;;;;;;;-0.53;64.34;102484.47;5052726;28;20026;-60
2021/12/22 07:15:32;;;;;;;;;;;;;;;-0.54;64.41;102490.94;5050715;28;20309;-59
2021/12/22 07:17:57;;;;;;;;;;;;;;;-0.57;64.45;102480.28;5052798;28;19960;-60
2021/12/22 07:20:22;;;;;;;;;;;;;;;-0.59;64.46;102482.28;5042761;28;19990;-59
2021/12/22 07:22:48;;;;;;;;;;;;;;;-0.60;64.71;102478.69;5051006;28;19925;-59
2021/12/22 07:25:15;;;;;;;;;;;;;;;-0.62;64.64;102482.59;5050943;28;20376;-59
2021/12/22 07:27:40;;;;;;;;;;;;;;;-0.64;64.24;102476.41;5052565;28;19927;-59
2021/12/22 07:30:06;;;;;;;;;;;;;;;-0.64;64.44;102481.84;5048367;28;19924;-59
2021/12/22 07:32:31;;;;;;;;;;;;;;;-0.66;64.41;102486.59;5049526;28;20276;-59
2021/12/22 07:34:57;;;;;;;;;;;;;;;-0.67;64.33;102484.84;5051822;28;20016;-59
2021/12/22 07:37:41;;;;;;;;;;;;;;;-0.65;64.57;102491.03;5047706;28;20015;-60
2021/12/22 07:40:08;;;;;;;;;;;;;;;-0.63;64.53;102483.56;5046473;28;20299;-59
2021/12/22 07:42:33;;;;;;;;;;;;;;;-0.62;64.40;102483.44;5042854;28;19975;-59
2021/12/22 07:44:58;;;;;;;;;;;;;;;-0.61;64.82;102476.97;5045715;28;20372;-59
2021/12/22 07:47:23;;;;;;;;;;;;;;;-0.57;64.48;102488.47;5050444;28;19928;-59
2021/12/22 07:49:50;;;;;;;;;;;;;;;-0.54;64.66;102482.75;5044885;28;19956;-59
2021/12/22 07:52:15;;;;;;;;;;;;;;;-0.52;64.57;102486.19;5052034;28;20443;-59
2021/12/22 07:54:40;;;;;;;;;;;;;;;-0.54;64.41;102472.69;5051978;28;20015;-61
2021/12/22 07:57:06;;;;;;;;;;;;;;;-0.53;64.33;102479.00;5050884;28;19948;-60
2021/12/22 07:59:31;;;;;;;;;;;;;;;-0.55;64.69;102478.25;5052310;28;20011;-60
2021/12/22 08:01:59;;;;;;;;;;;;;;;-0.55;64.38;102470.09;5051663;28;19928;-60
2021/12/22 08:04:24;;;;;;;;;;;;;;;-0.54;64.42;102477.28;5049811;28;19920;-60
2021/12/22 08:06:50;;;;;;;;;;;;;;;-0.54;64.48;102474.56;5052319;28;19928;-60
2021/12/22 08:09:15;;;;;;;;;;;;;;;-0.53;64.55;102477.13;5044657;28;20380;-60
2021/12/22 08:11:40;;;;;;;;;;;;;;;-0.48;64.61;102465.78;5051383;28;20051;-60
2021/12/22 08:14:05;;;;;;;;;;;;;;;-0.44;64.49;102480.88;5049264;28;19928;-59
2021/12/22 08:16:31;;;;;;;;;;;;;;;-0.42;64.82;102476.16;5039955;28;19979;-59
2021/12/22 08:18:56;;;;;;;;;;;;;;;-0.41;64.82;102477.88;5053034;28;19952;-59
2021/12/22 08:21:21;;;;;;;;;;;;;;;-0.37;64.60;102479.31;5051768;28;20000;-60
2021/12/22 08:23:46;;;;;;;;;;;;;;;-0.35;64.40;102477.31;5050588;28;19917;-60
2021/12/22 08:26:11;;;;;;;;;;;;;;;-0.32;64.61;102470.69;5046638;28;20455;-60
2021/12/22 08:28:37;;;;;;;;;;;;;;;-0.31;64.89;102470.56;5053039;28;19920;-60
2021/12/22 08:31:02;;;;;;;;;;;;;;;-0.31;64.56;102473.31;5050549;28;20370;-59
2021/12/22 08:33:30;;;;;;;;;;;;;;;-0.27;64.83;102474.75;5053614;28;19963;-60
2021/12/22 08:38:50;;;;;;;;;;;;;;;-0.25;65.05;102471.84;5053994;28;19927;-60
2021/12/22 08:41:16;;;;;;;;;;;;;;;-0.22;64.64;102474.31;5038157;28;20292;-61
2021/12/22 08:43:41;;;;;;;;;;;;;;;-0.21;64.95;102473.28;5049082;28;19927;-60
2021/12/22 08:46:06;;;;;;;;;;;;;;;-0.16;64.69;102472.88;5049676;28;19921;-61
2021/12/22 08:48:31;;;;;;;;;;;;;;;-0.14;64.86;102474.44;5052260;28;19925;-60
2021/12/22 08:50:56;;;;;;;;;;;;;;;-0.11;64.56;102473.31;5052914;28;19921;-61
2021/12/22 08:53:21;;;;;;;;;;;;;;;-0.09;64.85;102474.03;5053095;28;19928;-61
2021/12/22 08:55:47;;;;;;;;;;;;;;;-0.06;64.84;102477.31;5053036;28;19920;-61
2021/12/22 08:58:12;;;;;;;;;;;;;;;-0.02;65.26;102475.16;5047925;28;20011;-59
2021/12/22 09:00:38;;;;;;;;;;;;;;;-0.01;65.06;102479.63;5050757;28;20011;-60
2021/12/22 09:03:03;;;;;;;;;;;;;;;0.03;64.94;102481.06;5052413;28;19931;-60
2021/12/22 09:05:38;;;;;;;;;;;;;;;0.05;64.97;102473.59;5049326;28;20320;-59
2021/12/22 09:08:03;;;;;;;;;;;;;;;0.09;64.94;102472.31;5052945;28;20372;-59
2021/12/22 09:10:28;;;;;;;;;;;;;;;0.12;64.84;102473.84;5052104;28;20020;-61
2021/12/22 09:12:53;;;;;;;;;;;;;;;0.14;64.85;102472.72;5052896;28;20352;-60
2021/12/22 09:15:19;;;;;;;;;;;;;;;0.15;64.91;102470.84;5051838;28;20383;-60
2021/12/22 09:17:44;;;;;;;;;;;;;;;0.19;64.96;102473.13;5048496;28;19921;-60
2021/12/22 09:20:12;;;;;;;;;;;;;;;0.20;64.98;102465.84;5052030;28;19920;-61
2021/12/22 09:22:37;;;;;;;;;;;;;;;0.24;64.67;102461.81;5051225;28;19974;-61
2021/12/22 09:25:03;;;;;;;;;;;;;;;0.27;64.93;102466.09;5052394;28;19925;-61
2021/12/22 09:27:28;;;;;;;;;;;;;;;0.31;65.07;102472.97;5047198;28;19928;-61
2021/12/22 09:29:53;;;;;;;;;;;;;;;0.33;65.21;102473.72;5051134;28;20004;-61
2021/12/22 09:32:21;;;;;;;;;;;;;;;0.33;64.65;102466.38;5051945;28;19928;-61
2021/12/22 09:34:46;;;;;;;;;;;;;;;0.38;65.52;102474.13;5052606;28;19928;-62
2021/12/22 09:37:12;;;;;;;;;;;;;;;0.42;64.82;102465.47;5051119;28;20292;-61
2021/12/22 09:39:37;;;;;;;;;;;;;;;0.48;65.17;102466.78;5052867;28;19957;-62
2021/12/22 09:42:02;;;;;;;;;;;;;;;0.54;65.26;102468.91;5049595;28;20349;-61
2021/12/22 09:44:33;;;;;;;;;;;;;;;0.59;65.13;102458.41;5051325;28;19927;-59
2021/12/22 09:46:59;;;;;;;;;;;;;;;0.66;65.16;102455.94;5048708;28;19917;-59
2021/12/22 09:49:58;;;;;;;;;;;;;;;0.72;65.45;102455.34;5052464;28;19921;-59
2021/12/22 09:52:23;;;;;;;;;;;;;;;0.81;64.79;102459.06;5052360;28;19916;-59
2021/12/22 09:54:49;;;;;;;;;;;;;;;0.87;64.93;102456.59;5052947;28;19924;-60
2021/12/22 09:57:17;;;;;;;;;;;;;;;0.97;65.46;102451.06;5052653;28;19923;-59
2021/12/22 09:59:42;;;;;;;;;;;;;;;1.05;65.17;102455.78;5053621;28;19928;-60
2021/12/22 10:02:08;;;;;;;;;;;;;;;1.08;64.86;102461.81;5053625;28;19917;-59
2021/12/22 10:04:33;;;;;;;;;;;;;;;1.11;64.64;102469.72;5045819;28;19932;-59
2021/12/22 10:06:58;;;;;;;;;;;;;;;1.14;65.30;102458.47;5053700;28;20388;-59
2021/12/22 10:09:24;;;;;;;;;;;;;;;1.17;65.00;102455.41;5053394;28;19920;-59
2021/12/22 10:11:50;;;;;;;;;;;;;;;1.21;65.35;102445.88;5050991;28;20368;-60
2021/12/22 10:14:25;;;;;;;;;;;;;;;1.24;64.62;102442.00;5052219;28;20288;-60
2021/12/22 10:16:51;;;;;;;;;;;;;;;1.27;64.86;102449.06;5053204;28;19916;-58
2021/12/22 10:19:17;;;;;;;;;;;;;;;1.30;65.41;102448.72;5051493;28;19916;-59
2021/12/22 10:21:51;;;;;;;;;;;;;;;1.33;64.96;102441.06;5050715;28;19965;-60
2021/12/22 10:24:17;;;;;;;;;;;;;;;1.37;64.92;102437.00;5052200;28;20022;-59
2021/12/22 10:26:42;;;;;;;;;;;;;;;1.42;65.21;102433.84;5051378;28;20372;-59
2021/12/22 10:29:08;;;;;;;;;;;;;;;1.48;65.31;102435.94;5052793;28;19928;-59
2021/12/22 10:31:33;;;;;;;;;;;;;;;1.54;64.77;102431.75;5051825;28;20011;-60
2021/12/22 10:34:00;;;;;;;;;;;;;;;1.61;64.86;102444.66;5051918;28;19928;-60
2021/12/22 10:36:26;;;;;;;;;;;;;;;1.67;65.15;102435.81;5052884;28;19947;-59
2021/12/22 10:38:59;;;;;;;;;;;;;;;1.77;65.39;102427.53;5045047;28;19954;-59
2021/12/22 10:41:27;;;;;;;;;;;;;;;1.90;64.76;102429.88;5052475;28;19928;-60
2021/12/22 10:43:52;;;;;;;;;;;;;;;1.98;65.36;102420.84;5050389;28;19921;-59
2021/12/22 10:46:26;;;;;;;;;;;;;;;2.08;64.24;102421.59;5049928;28;20383;-60
2021/12/22 10:49:20;;;;;;;;;;;;;;;2.20;64.43;102415.75;5053059;28;19958;-60
2021/12/22 10:52:00;;;;;;;;;;;;;;;2.32;64.31;102409.97;5032917;28;19944;-59
2021/12/22 10:54:33;;;;;;;;;;;;;;;2.40;64.37;102408.16;5031846;28;19917;-60
2021/12/22 10:56:58;;;;;;;;;;;;;;;2.43;63.95;102404.22;5052517;28;19924;-59
2021/12/22 10:59:24;;;;;;;;;;;;;;;2.45;64.71;102402.19;5046560;28;19931;-59
2021/12/22 11:01:52;;;;;;;;;;;;;;;2.47;64.48;102391.91;5044664;28;19921;-59
2021/12/22 11:04:22;;;;;;;;;;;;;;;2.47;63.91;102397.41;5032297;28;19917;-60
2021/12/22 11:06:49;;;;;;;;;;;;;;;2.49;64.47;102391.78;5044292;28;20338;-59
2021/12/22 11:09:16;;;;;;;;;;;;;;;2.50;63.84;102393.47;5051329;28;19966;-60
2021/12/22 11:12:00;;;;;;;;;;;;;;;2.51;64.52;102390.56;5052066;28;21273;-60
2021/12/22 11:14:27;;;;;;;;;;;;;;;2.52;64.20;102397.78;5051344;28;19927;-59
2021/12/22 11:17:00;;;;;;;;;;;;;;;2.55;64.04;102391.97;5046783;28;19920;-59
2021/12/22 11:19:27;;;;;;;;;;;;;;;2.59;63.58;102392.50;5036397;28;19999;-59
2021/12/22 11:22:03;;;;;;;;;;;;;;;2.63;64.19;102388.41;5045433;28;19921;-61
2021/12/22 11:24:29;;;;;;;;;;;;;;;2.64;63.76;102387.41;5048289;28;19925;-60
2021/12/22 11:26:55;;;;;;;;;;;;;;;2.63;63.89;102389.28;5051724;28;19964;-60
2021/12/22 11:29:20;;;;;;;;;;;;;;;2.63;63.45;102383.81;5054411;28;20399;-60
2021/12/22 11:31:46;;;;;;;;;;;;;;;2.65;63.97;102380.91;5049181;28;20308;-59
2021/12/22 11:34:13;;;;;;;;;;;;;;;2.67;63.82;102373.34;5053858;28;19921;-59
2021/12/22 11:36:38;;;;;;;;;;;;;;;2.65;63.43;102373.53;5043981;28;20012;-58
2021/12/22 11:39:04;;;;;;;;;;;;;;;2.65;64.15;102370.78;5053519;28;20354;-59
2021/12/22 11:41:32;;;;;;;;;;;;;;;2.66;63.68;102360.66;5049719;28;20384;-58
2021/12/22 11:43:57;;;;;;;;;;;;;;;2.65;64.27;102365.31;5053749;28;19927;-58
2021/12/22 11:46:25;;;;;;;;;;;;;;;2.66;64.19;102356.03;5049340;28;20300;-59
2021/12/22 11:48:50;;;;;;;;;;;;;;;2.67;63.89;102360.53;5054468;28;20043;-60
2021/12/22 11:51:26;;;;;;;;;;;;;;;2.66;63.50;102353.31;5053671;28;20020;-60
2021/12/22 11:53:52;;;;;;;;;;;;;;;2.68;63.78;102347.69;5055374;28;19920;-60
2021/12/22 11:56:34;;;;;;;;;;;;;;;2.68;64.22;102348.53;5052443;28;20380;-60
2021/12/22 11:58:59;;;;;;;;;;;;;;;2.69;64.37;102349.38;5054347;28;20364;-60
2021/12/22 12:01:24;;;;;;;;;;;;;;;2.68;64.50;102340.31;5050399;28;20030;-60
2021/12/22 12:03:49;;;;;;;;;;;;;;;2.69;64.13;102333.78;5050156;28;19927;-60
2021/12/22 12:06:18;;;;;;;;;;;;;;;2.70;63.86;102332.75;5052964;28;20315;-60
2021/12/22 12:08:45;;;;;;;;;;;;;;;2.71;63.78;102325.38;5046138;28;19927;-60
2021/12/22 12:11:13;;;;;;;;;;;;;;;2.70;64.51;102324.53;5051351;28;20034;-60
2021/12/22 12:13:47;;;;;;;;;;;;;;;2.69;63.79;102317.34;5053750;28;19921;-61
2021/12/22 12:21:49;;;;;;;;;;;;;;;2.67;63.70;102308.44;5053492;28;19928;-60
2021/12/22 12:24:32;;;;;;;;;;;;;;;2.67;63.71;102305.69;5050018;28;19921;-61
2021/12/22 12:26:58;;;;;;;;;;;;;;;2.68;63.71;102301.06;5054702;28;19921;-60
2021/12/22 12:29:59;;;;;;;;;;;;;;;2.67;64.43;102300.22;5053145;28;20030;-61
2021/12/22 12:32:43;;;;;;;;;;;;;;;2.64;64.00;102295.06;5006898;28;19929;-61
2021/12/22 12:35:17;;;;;;;;;;;;;;;2.66;63.47;102289.41;5044490;28;19927;-61
2021/12/22 12:38:01;;;;;;;;;;;;;;;2.65;63.42;102288.53;5041087;28;20387;-60
2021/12/22 12:40:45;;;;;;;;;;;;;;;2.66;63.29;102283.91;5050609;28;19967;-61
2021/12/22 12:43:10;;;;;;;;;;;;;;;2.65;63.41;102285.81;5050372;28;19975;-60
2021/12/22 12:45:42;;;;;;;;;;;;;;;2.64;63.47;102280.50;5060680;28;19921;-60
2021/12/22 12:48:24;;;;;;;;;;;;;;;2.66;63.57;102284.78;5053039;28;19920;-61
2021/12/22 12:51:08;;;;;;;;;;;;;;;2.65;63.50;102272.09;5052097;28;19920;-60
2021/12/22 12:53:38;;;;;;;;;;;;;;;2.68;63.83;102284.63;5053453;28;19925;-61
2021/12/22 12:56:06;;;;;;;;;;;;;;;2.70;63.90;102282.56;5051724;28;20303;-60
2021/12/22 12:58:31;;;;;;;;;;;;;;;2.69;64.08;102286.34;5043538;28;19929;-61
2021/12/22 13:00:56;;;;;;;;;;;;;;;2.68;63.82;102270.91;5028541;28;19944;-60
2021/12/22 13:03:21;;;;;;;;;;;;;;;2.68;64.09;102263.53;5024755;28;19921;-60